createdAt,value
2023-04-28T00:02:19.896Z,13.54
2023-04-28T00:05:23.288Z,13.39
2023-04-28T00:08:27.130Z,13.25
2023-04-28T00:11:28.853Z,13.06
2023-04-28T00:14:30.910Z,12.94
2023-04-28T00:17:32.862Z,12.84
2023-04-28T00:20:35.913Z,12.87
2023-04-28T00:23:37.616Z,12.65
2023-04-28T00:26:39.473Z,12.59
2023-04-28T00:29:41.485Z,12.42
2023-04-28T00:32:43.226Z,12.31
2023-04-28T00:35:46.709Z,12.15
2023-04-28T00:38:48.403Z,12.28
2023-04-28T00:41:50.106Z,12.39
2023-04-28T00:44:52.017Z,12.58
2023-04-28T00:47:54.914Z,12.74
2023-04-28T00:50:58.144Z,12.92
2023-04-28T00:54:00.136Z,12.93
2023-04-28T00:57:05.204Z,13.42
2023-04-28T01:00:09.998Z,13.37
2023-04-28T01:03:14.827Z,13.57
2023-04-28T01:06:18.581Z,13.75
2023-04-28T01:09:20.696Z,13.95
2023-04-28T01:12:24.164Z,13.90
2023-04-28T01:15:30.037Z,13.99
2023-04-28T01:18:32.537Z,14.00
2023-04-28T01:21:35.835Z,14.02
2023-04-28T01:24:51.419Z,14.12
2023-04-28T01:27:53.614Z,14.25
2023-04-28T01:30:56.409Z,14.24
2023-04-28T01:33:58.506Z,14.32
2023-04-28T01:37:00.456Z,14.37
2023-04-28T01:40:04.377Z,14.40
2023-04-28T01:43:07.130Z,14.30
2023-04-28T01:46:09.145Z,14.38
2023-04-28T01:49:11.357Z,14.46
2023-04-28T01:52:13.026Z,14.25
2023-04-28T01:55:34.853Z,14.26
2023-04-28T01:58:36.666Z,14.02
2023-04-28T02:01:38.536Z,13.67
2023-04-28T02:04:40.813Z,13.36
2023-04-28T02:07:43.210Z,13.06
2023-04-28T02:10:46.847Z,12.68
2023-04-28T02:13:48.923Z,12.57
2023-04-28T02:16:50.620Z,12.61
2023-04-28T02:19:54.985Z,12.36
2023-04-28T02:22:57.730Z,12.38
2023-04-28T02:26:04.794Z,12.20
2023-04-28T02:29:06.706Z,12.22
2023-04-28T02:32:08.642Z,12.18
2023-04-28T02:35:10.527Z,12.05
2023-04-28T02:38:12.300Z,12.03
2023-04-28T02:41:16.144Z,12.12
2023-04-28T02:44:19.155Z,12.08
2023-04-28T02:47:21.276Z,12.14
2023-04-28T02:50:23.417Z,12.07
2023-04-28T02:53:25.419Z,12.01
2023-04-28T02:56:29.989Z,11.77
2023-04-28T02:59:32.289Z,11.77
2023-04-28T03:02:34.007Z,11.76
2023-04-28T03:05:36.048Z,11.69
2023-04-28T03:08:37.942Z,11.47
2023-04-28T03:11:41.362Z,11.49
2023-04-28T03:14:43.648Z,11.38
2023-04-28T03:17:45.720Z,11.43
2023-04-28T03:20:47.606Z,11.31
2023-04-28T03:23:49.279Z,11.26
2023-04-28T03:26:52.660Z,11.14
2023-04-28T03:29:55.058Z,11.10
2023-04-28T03:32:59.350Z,11.25
2023-04-28T03:36:01.140Z,11.24
2023-04-28T03:39:03.122Z,11.11
2023-04-28T03:42:08.006Z,11.09
2023-04-28T03:45:41.910Z,11.21
2023-04-28T03:48:47.204Z,11.23
2023-04-28T03:51:51.165Z,11.39
2023-04-28T03:54:53.932Z,11.33
2023-04-28T03:57:57.065Z,11.43
2023-04-28T04:01:01.489Z,11.30
2023-04-28T04:04:03.731Z,11.54
2023-04-28T04:07:06.366Z,11.62
2023-04-28T04:10:09.315Z,11.39
2023-04-28T04:13:14.161Z,11.56
2023-04-28T04:16:18.711Z,11.76
2023-04-28T04:19:20.620Z,11.74
2023-04-28T04:22:25.225Z,11.60
2023-04-28T04:25:27.749Z,11.72
2023-04-28T04:28:31.587Z,11.64
2023-04-28T04:31:35.236Z,11.67
2023-04-28T04:34:37.130Z,11.68
2023-04-28T04:37:39.837Z,11.80
2023-04-28T04:44:04.483Z,11.87
2023-04-28T04:47:29.146Z,11.90
2023-04-28T04:50:44.438Z,11.85
2023-04-28T04:53:46.571Z,11.85
2023-04-28T04:56:48.917Z,11.79
2023-04-28T04:59:58.772Z,11.72
2023-04-28T05:03:01.546Z,11.64
2023-04-28T05:06:04.181Z,11.61
2023-04-28T05:09:19.401Z,11.68
2023-04-28T05:12:21.303Z,11.63
2023-04-28T05:15:25.524Z,11.69
2023-04-28T05:18:47.810Z,11.80
2023-04-28T05:21:52.689Z,11.84
2023-04-28T05:24:54.886Z,11.80
2023-04-28T05:27:56.822Z,11.78
2023-04-28T05:31:00.034Z,11.88
2023-04-28T05:34:02.795Z,11.86
2023-04-28T05:37:04.594Z,11.91
2023-04-28T05:40:09.204Z,11.93
2023-04-28T05:43:11.321Z,11.97
2023-04-28T05:46:28.465Z,12.03
2023-04-28T05:49:34.832Z,11.96
2023-04-28T05:52:39.275Z,11.93
2023-04-28T05:55:41.464Z,11.90
2023-04-28T05:58:48.059Z,11.87
2023-04-28T06:01:51.515Z,11.86
2023-04-28T06:04:53.501Z,11.83
2023-04-28T06:07:56.394Z,11.79
2023-04-28T06:10:58.431Z,11.73
2023-04-28T06:14:00.330Z,11.71
2023-04-28T06:17:03.745Z,11.74
2023-04-28T06:20:06.733Z,11.69
2023-04-28T06:23:09.400Z,11.68
2023-04-28T06:26:18.472Z,11.71
2023-04-28T06:29:20.897Z,11.81
2023-04-28T06:32:24.035Z,11.86
2023-04-28T06:35:27.086Z,11.87
2023-04-28T06:38:30.053Z,11.92
2023-04-28T06:41:32.114Z,11.91
2023-04-28T06:44:36.319Z,11.97
2023-04-28T06:47:40.952Z,11.95
2023-04-28T06:50:44.569Z,11.96
2023-04-28T06:53:46.462Z,11.96
2023-04-28T06:56:48.158Z,11.96
2023-04-28T06:59:49.808Z,12.00
2023-04-28T07:02:53.134Z,11.97
2023-04-28T07:05:55.342Z,12.03
2023-04-28T07:08:57.102Z,12.05
2023-04-28T07:11:59.571Z,12.03
2023-04-28T07:15:01.425Z,11.97
2023-04-28T07:18:06.070Z,11.99
2023-04-28T07:21:07.964Z,12.04
2023-04-28T07:24:11.166Z,12.13
2023-04-28T07:27:13.016Z,12.19
2023-04-28T07:30:26.524Z,12.17
2023-04-28T07:33:31.417Z,12.08
2023-04-28T07:36:33.389Z,12.21
2023-04-28T07:39:35.459Z,12.27
2023-04-28T07:42:37.438Z,12.35
2023-04-28T07:45:40.365Z,12.48
2023-04-28T07:48:43.659Z,12.51
2023-04-28T07:51:45.589Z,12.50
2023-04-28T07:54:47.309Z,12.49
2023-04-28T07:57:49.611Z,12.60
2023-04-28T08:00:54.565Z,12.70
2023-04-28T08:03:58.035Z,-146.75
2023-04-28T08:06:59.846Z,-146.75
2023-04-28T08:13:08.784Z,12.85
2023-04-28T08:16:10.592Z,13.00
2023-04-28T08:19:12.643Z,12.92
2023-04-28T08:22:14.882Z,12.91
2023-04-28T08:25:18.445Z,12.99
2023-04-28T08:28:21.652Z,13.14
2023-04-28T08:31:23.967Z,13.40
2023-04-28T08:34:25.744Z,13.32
2023-04-28T08:37:27.919Z,13.13
2023-04-28T08:40:31.412Z,13.12
2023-04-28T08:43:35.121Z,13.13
2023-04-28T08:46:42.187Z,13.55
2023-04-28T08:49:45.106Z,13.45
2023-04-28T08:52:47.725Z,13.23
2023-04-28T08:55:53.347Z,13.50
2023-04-28T08:58:56.777Z,13.77
2023-04-28T09:02:01.043Z,13.93
2023-04-28T09:05:04.805Z,14.12
2023-04-28T09:08:06.843Z,13.92
2023-04-28T09:11:09.950Z,13.76
2023-04-28T09:14:13.784Z,14.11
2023-04-28T09:17:16.667Z,14.22
2023-04-28T09:20:21.835Z,13.85
2023-04-28T09:23:23.550Z,13.88
2023-04-28T09:26:25.704Z,13.71
2023-04-28T09:29:30.157Z,13.70
2023-04-28T09:32:32.422Z,13.62
2023-04-28T09:35:40.974Z,13.82
2023-04-28T09:38:45.344Z,13.75
2023-04-28T09:41:47.372Z,13.84
2023-04-28T09:44:54.380Z,13.62
2023-04-28T09:48:10.856Z,13.72
2023-04-28T09:51:22.589Z,13.86
2023-04-28T09:54:28.744Z,13.84
2023-04-28T09:57:35.001Z,13.78
2023-04-28T10:00:40.325Z,13.74
2023-04-28T10:03:44.599Z,13.81
2023-04-28T10:06:47.871Z,13.92
2023-04-28T10:09:50.905Z,14.02
2023-04-28T10:12:52.806Z,13.97
2023-04-28T10:15:58.234Z,14.03
2023-04-28T10:19:03.727Z,13.99
2023-04-28T10:22:24.781Z,14.22
2023-04-28T10:25:28.061Z,14.38
2023-04-28T10:28:29.985Z,14.74
2023-04-28T10:31:34.883Z,14.59
2023-04-28T10:34:36.626Z,14.37
2023-04-28T10:38:06.526Z,14.57
2023-04-28T10:41:34.436Z,14.63
2023-04-28T10:44:42.810Z,14.43
2023-04-28T10:48:07.081Z,14.52
2023-04-28T10:51:39.434Z,14.41
2023-04-28T10:54:41.150Z,-146.75
2023-04-28T10:57:44.229Z,-146.75
2023-04-28T11:00:48.231Z,-146.75
2023-04-28T11:04:07.793Z,-146.75
2023-04-28T11:07:14.634Z,-146.75
2023-04-28T11:13:34.402Z,14.69
2023-04-28T11:16:49.598Z,14.83
2023-04-28T11:19:53.698Z,14.71
2023-04-28T11:22:55.992Z,14.73
2023-04-28T11:26:00.662Z,14.66
2023-04-28T11:29:04.289Z,14.43
2023-04-28T11:32:07.963Z,14.54
2023-04-28T11:35:10.117Z,14.56
2023-04-28T11:38:11.856Z,14.49
2023-04-28T11:41:13.799Z,14.44
2023-04-28T11:44:19.337Z,14.63
2023-04-28T11:47:31.308Z,14.72
2023-04-28T11:50:37.122Z,14.80
2023-04-28T11:53:42.300Z,14.66
2023-04-28T11:56:45.174Z,14.81
2023-04-28T11:59:49.436Z,14.85
2023-04-28T12:06:17.620Z,15.17
2023-04-28T12:09:21.691Z,15.12
2023-04-28T12:12:40.159Z,15.17
2023-04-28T12:15:49.073Z,15.38
2023-04-28T12:18:59.920Z,14.99
2023-04-28T12:22:04.514Z,14.94
2023-04-28T12:25:07.868Z,15.11
2023-04-28T12:28:11.025Z,14.94
2023-04-28T12:31:14.226Z,15.05
2023-04-28T12:34:16.024Z,15.09
2023-04-28T12:37:18.320Z,15.13
2023-04-28T12:40:21.014Z,15.13
2023-04-28T12:43:23.883Z,15.00
2023-04-28T12:46:27.035Z,15.13
2023-04-28T12:49:29.028Z,15.24
2023-04-28T12:52:33.855Z,15.31
2023-04-28T12:55:35.733Z,15.16
2023-04-28T12:58:38.115Z,15.35
2023-04-28T13:01:41.268Z,15.48
2023-04-28T13:04:45.449Z,15.55
2023-04-28T13:07:49.441Z,15.34
2023-04-28T13:10:51.237Z,15.39
2023-04-28T13:13:53.467Z,15.44
2023-04-28T13:16:57.812Z,15.68
2023-04-28T13:20:01.293Z,15.70
2023-04-28T13:23:03.492Z,15.51
2023-04-28T13:26:05.550Z,15.45
2023-04-28T13:29:10.690Z,15.41
2023-04-28T13:32:13.922Z,15.42
2023-04-28T13:35:15.978Z,15.32
2023-04-28T13:38:19.012Z,15.35
2023-04-28T13:41:21.203Z,15.31
2023-04-28T13:44:23.008Z,15.39
2023-04-28T13:47:27.333Z,15.51
2023-04-28T13:50:29.132Z,15.86
2023-04-28T13:53:31.393Z,15.77
2023-04-28T13:56:33.196Z,15.74
2023-04-28T13:59:34.942Z,15.57
2023-04-28T14:02:39.496Z,-146.75
2023-04-28T14:05:48.971Z,-146.75
2023-04-28T14:08:51.915Z,-146.75
2023-04-28T14:12:58.656Z,15.13
2023-04-28T14:16:01.485Z,15.21
2023-04-28T14:19:03.315Z,15.17
2023-04-28T14:22:04.978Z,15.29
2023-04-28T14:25:07.941Z,15.10
2023-04-28T14:28:11.686Z,15.05
2023-04-28T14:31:13.659Z,15.04
2023-04-28T14:34:15.677Z,15.02
2023-04-28T14:37:17.684Z,14.96
2023-04-28T14:40:19.646Z,15.01
2023-04-28T14:43:23.065Z,15.03
2023-04-28T14:46:25.267Z,15.09
2023-04-28T14:49:27.700Z,15.11
2023-04-28T14:52:32.926Z,15.14
2023-04-28T14:55:35.069Z,15.42
2023-04-28T14:58:38.389Z,16.26
2023-04-28T15:01:40.210Z,16.67
2023-04-28T15:04:42.550Z,16.88
2023-04-28T15:07:44.590Z,16.83
2023-04-28T15:10:46.265Z,17.10
2023-04-28T15:13:49.404Z,17.50
2023-04-28T15:16:51.366Z,18.65
2023-04-28T15:19:53.470Z,18.79
2023-04-28T15:23:02.773Z,19.54
2023-04-28T15:26:11.159Z,18.31
2023-04-28T15:29:14.384Z,17.47
2023-04-28T15:32:16.255Z,17.43
2023-04-28T15:35:22.090Z,17.48
2023-04-28T15:38:24.039Z,16.91
2023-04-28T15:41:25.934Z,17.29
2023-04-28T15:44:32.067Z,17.29
2023-04-28T15:47:33.828Z,17.28
2023-04-28T15:50:36.433Z,17.42
2023-04-28T15:53:39.105Z,17.79
2023-04-28T15:56:41.282Z,19.31
2023-04-28T15:59:44.705Z,19.36
2023-04-28T16:02:46.840Z,18.49
2023-04-28T16:05:48.802Z,17.98
2023-04-28T16:08:50.561Z,17.83
2023-04-28T16:11:52.334Z,17.52
2023-04-28T16:14:56.195Z,17.60
2023-04-28T16:17:58.015Z,18.17
2023-04-28T16:20:59.812Z,18.56
2023-04-28T16:24:02.871Z,19.24
2023-04-28T16:27:04.690Z,19.45
2023-04-28T16:30:10.038Z,19.31
2023-04-28T16:33:11.802Z,-146.75
2023-04-28T16:36:13.493Z,-146.75
2023-04-28T16:39:15.659Z,-146.75
2023-04-28T16:43:00.039Z,19.84
2023-04-28T16:46:01.816Z,18.96
2023-04-28T16:49:03.857Z,19.94
2023-04-28T16:52:06.113Z,20.24
2023-04-28T16:55:08.630Z,18.63
2023-04-28T16:58:11.935Z,17.78
2023-04-28T17:01:13.609Z,17.67
2023-04-28T17:04:15.934Z,17.66
2023-04-28T17:07:17.884Z,17.33
2023-04-28T17:10:22.733Z,17.25
2023-04-28T17:13:25.962Z,17.84
2023-04-28T17:16:31.165Z,17.75
2023-04-28T17:19:33.415Z,18.68
2023-04-28T17:22:35.477Z,18.66
2023-04-28T17:25:38.677Z,19.04
2023-04-28T17:28:43.916Z,17.64
2023-04-28T17:31:47.228Z,17.30
2023-04-28T17:34:49.013Z,16.84
2023-04-28T17:37:50.792Z,16.51
2023-04-28T17:40:52.612Z,16.36
2023-04-28T17:43:56.299Z,14.86
2023-04-28T17:46:58.732Z,14.08
2023-04-28T17:50:00.634Z,14.39
2023-04-28T17:54:01.267Z,-146.75
2023-04-28T18:27:57.662Z,15.93
2023-04-28T18:33:10.361Z,14.97
2023-04-28T18:36:12.743Z,14.58
2023-04-28T18:39:15.618Z,14.85
2023-04-28T18:42:17.373Z,14.85
2023-04-28T18:45:19.344Z,14.85
2023-04-28T18:48:25.486Z,14.85
2023-04-28T18:51:27.786Z,14.85
2023-04-28T18:55:28.280Z,-146.75
2023-04-28T19:02:44.562Z,14.63
2023-04-28T19:05:48.195Z,14.63
2023-04-28T19:08:53.463Z,-146.75
2023-04-28T19:11:55.124Z,-146.75
2023-04-28T19:17:56.252Z,16.93
2023-04-28T19:21:57.178Z,-146.75
2023-04-28T19:25:58.407Z,-146.75
2023-04-28T19:47:43.917Z,-146.75
2023-04-28T19:50:46.093Z,-146.75
2023-04-28T19:53:48.758Z,-146.75
2023-04-28T19:57:49.068Z,-146.75
2023-04-28T20:02:45.740Z,20.30
2023-04-28T20:05:47.877Z,-146.75
2023-04-28T20:08:49.780Z,-146.75
2023-04-28T20:11:51.849Z,-146.75
2023-04-28T20:17:48.806Z,23.71
2023-04-28T20:20:52.484Z,22.39
2023-04-28T20:26:20.604Z,19.77
2023-04-28T20:29:22.841Z,19.03
2023-04-28T20:32:24.837Z,16.49
2023-04-28T20:35:27.250Z,15.57
2023-04-28T20:38:31.002Z,15.92
2023-04-28T20:41:34.626Z,16.57
2023-04-28T20:44:36.861Z,16.29
2023-04-28T20:47:39.653Z,16.09
2023-04-28T20:50:43.021Z,16.38
2023-04-28T20:53:45.093Z,16.45
2023-04-28T20:56:50.064Z,16.02
2023-04-28T20:59:52.239Z,15.73
2023-04-28T21:02:54.578Z,15.66
2023-04-28T21:05:56.586Z,15.46
2023-04-28T21:08:58.537Z,15.35
2023-04-28T21:12:02.146Z,15.09
2023-04-28T21:15:04.667Z,15.11
2023-04-28T21:18:06.533Z,14.92
2023-04-28T21:21:08.408Z,14.74
2023-04-28T21:24:10.275Z,14.65
2023-04-28T21:27:13.980Z,14.76
2023-04-28T21:30:15.860Z,14.46
2023-04-28T21:33:17.602Z,14.74
2023-04-28T21:36:21.169Z,14.69
2023-04-28T21:39:23.207Z,14.55
2023-04-28T21:42:28.313Z,14.51
2023-04-28T21:45:30.109Z,14.26
2023-04-28T21:48:31.854Z,14.42
2023-04-28T21:51:34.427Z,14.49
2023-04-28T21:54:36.284Z,14.43
2023-04-28T21:57:41.031Z,14.22
2023-04-28T22:00:43.673Z,13.99
2023-04-28T22:03:46.664Z,13.98
2023-04-28T22:06:48.934Z,13.88
2023-04-28T22:09:51.905Z,14.16
2023-04-28T22:12:55.219Z,14.06
2023-04-28T22:15:57.223Z,14.08
2023-04-28T22:18:59.444Z,13.91
2023-04-28T22:22:01.468Z,13.78
2023-04-28T22:25:04.663Z,13.66
2023-04-28T22:28:08.190Z,13.65
2023-04-28T22:31:10.047Z,13.64
2023-04-28T22:34:12.777Z,13.57
2023-04-28T22:37:14.699Z,13.57
2023-04-28T22:40:17.630Z,13.49
2023-04-28T22:43:20.819Z,13.58
2023-04-28T22:46:23.065Z,13.53
2023-04-28T22:49:28.513Z,13.35
2023-04-28T22:52:30.286Z,13.22
2023-04-28T22:55:32.389Z,13.32
2023-04-28T22:58:35.880Z,13.24
2023-04-28T23:01:37.799Z,13.27
2023-04-28T23:04:39.969Z,13.21
2023-04-28T23:07:44.289Z,13.13
2023-04-28T23:10:46.338Z,13.18
2023-04-28T23:13:49.608Z,13.25
2023-04-28T23:16:51.383Z,13.27
2023-04-28T23:19:53.304Z,13.26
2023-04-28T23:22:57.176Z,13.24
2023-04-28T23:25:59.458Z,13.29
2023-04-28T23:29:02.622Z,13.25
2023-04-28T23:32:05.167Z,12.99
2023-04-28T23:35:07.519Z,13.11
2023-04-28T23:38:09.359Z,13.05
2023-04-28T23:41:11.036Z,13.05
2023-04-28T23:44:14.148Z,12.87
2023-04-28T23:47:16.060Z,12.84
2023-04-28T23:50:18.643Z,12.82
2023-04-28T23:53:20.950Z,12.82
2023-04-28T23:56:22.819Z,12.95
2023-04-28T23:59:27.383Z,12.77
